Time;durP1;ratioP1;P1;durP2;ratioP2;P2;SDS_P1;SDS_P2;PMS_P1;PMS_P2;Temp;Humidity;BMP_temperature;BMP_pressure;BME280_temperature;BME280_humidity;BME280_pressure;Samples;Min_cycle;Max_cycle;Signal;HPM_P1;HPM_P2
2021/03/17 00:01:52;;;;;;;9.30;6.35;;;;;;;;;;5042140;28;20456;-52
2021/03/17 00:04:28;;;;;;;7.53;5.97;;;;;;;;;;5044745;28;20226;-53
2021/03/17 00:06:54;;;;;;;11.65;6.75;;;;;;;;;;5045318;28;20167;-53
2021/03/17 00:09:20;;;;;;;8.03;6.70;;;;;;;;;;5043911;28;20298;-52
2021/03/17 00:11:46;;;;;;;9.75;6.45;;;;;;;;;;5043658;28;20533;-52
2021/03/17 00:14:12;;;;;;;9.93;6.15;;;;;;;;;;5041217;28;20689;-55
2021/03/17 00:16:41;;;;;;;9.07;6.72;;;;;;;;;;5044549;28;20605;-53
2021/03/17 00:19:07;;;;;;;6.78;5.80;;;;;;;;;;5045012;28;20212;-54
2021/03/17 00:21:36;;;;;;;6.68;5.85;;;;;;;;;;5044913;28;20635;-56
2021/03/17 00:24:03;;;;;;;17.05;6.25;;;;;;;;;;5044866;28;20167;-52
2021/03/17 00:26:31;;;;;;;9.20;6.82;;;;;;;;;;5045525;28;20203;-52
2021/03/17 00:29:06;;;;;;;9.27;5.97;;;;;;;;;;5042401;28;20626;-52
2021/03/17 00:31:35;;;;;;;7.22;6.57;;;;;;;;;;5045029;28;20171;-53
2021/03/17 00:34:10;;;;;;;10.35;7.40;;;;;;;;;;5045486;28;20171;-52
2021/03/17 00:36:51;;;;;;;13.70;7.18;;;;;;;;;;5045363;28;20159;-55
2021/03/17 00:39:29;;;;;;;13.60;6.90;;;;;;;;;;5044151;28;20195;-53
2021/03/17 00:41:55;;;;;;;12.55;8.57;;;;;;;;;;5045006;28;20175;-54
2021/03/17 00:44:27;;;;;;;9.15;6.90;;;;;;;;;;5044106;28;20175;-54
2021/03/17 00:46:56;;;;;;;9.18;7.05;;;;;;;;;;5044599;28;20172;-54
2021/03/17 00:49:25;;;;;;;9.13;7.40;;;;;;;;;;5044024;28;20199;-53
2021/03/17 00:51:51;;;;;;;13.05;8.13;;;;;;;;;;5042447;28;20182;-54
2021/03/17 00:54:22;;;;;;;12.48;8.98;;;;;;;;;;5044485;28;20172;-55
2021/03/17 00:56:49;;;;;;;12.75;8.88;;;;;;;;;;5040891;28;20190;-55
2021/03/17 00:59:15;;;;;;;13.45;8.40;;;;;;;;;;5042526;28;20246;-54
2021/03/17 01:01:41;;;;;;;20.07;9.70;;;;;;;;;;5042862;28;20187;-53
2021/03/17 01:04:07;;;;;;;12.53;8.47;;;;;;;;;;5044593;28;20407;-52
2021/03/17 01:06:33;;;;;;;9.80;8.40;;;;;;;;;;5042617;28;20624;-53
2021/03/17 01:08:59;;;;;;;13.20;8.63;;;;;;;;;;5043816;28;20519;-52
2021/03/17 01:11:25;;;;;;;12.32;8.85;;;;;;;;;;5043266;28;20502;-53
2021/03/17 01:13:56;;;;;;;12.90;8.37;;;;;;;;;;5043535;28;20671;-53
2021/03/17 01:16:23;;;;;;;10.02;7.82;;;;;;;;;;5044093;28;20402;-54
2021/03/17 01:18:49;;;;;;;9.80;8.10;;;;;;;;;;5043508;28;20590;-54
2021/03/17 01:21:15;;;;;;;14.20;8.10;;;;;;;;;;5042026;28;20178;-55
2021/03/17 01:23:41;;;;;;;9.93;8.23;;;;;;;;;;5005157;28;20415;-55
2021/03/17 01:26:20;;;;;;;15.48;9.07;;;;;;;;;;5004971;28;20484;-54
2021/03/17 01:28:46;;;;;;;12.05;7.55;;;;;;;;;;5004452;28;20211;-54
2021/03/17 01:31:25;;;;;;;14.53;8.20;;;;;;;;;;5003581;28;20172;-54
2021/03/17 01:33:54;;;;;;;8.23;6.82;;;;;;;;;;4997190;28;20431;-53
2021/03/17 01:36:23;;;;;;;13.02;7.35;;;;;;;;;;5004995;28;20228;-53
2021/03/17 01:38:49;;;;;;;11.13;8.50;;;;;;;;;;5004960;28;20203;-52
2021/03/17 01:41:21;;;;;;;9.80;7.20;;;;;;;;;;5003427;28;20177;-55
2021/03/17 01:43:47;;;;;;;13.02;7.70;;;;;;;;;;5004813;28;20196;-53
2021/03/17 01:46:13;;;;;;;11.00;7.63;;;;;;;;;;5002567;28;20181;-54
2021/03/17 01:48:48;;;;;;;18.40;9.23;;;;;;;;;;5019058;28;20221;-55
2021/03/17 01:51:14;;;;;;;8.68;7.28;;;;;;;;;;5043556;28;20398;-55
2021/03/17 01:53:40;;;;;;;12.10;8.35;;;;;;;;;;5043878;28;20163;-54
2021/03/17 01:56:09;;;;;;;9.60;7.85;;;;;;;;;;5043294;28;20168;-53
2021/03/17 01:58:47;;;;;;;11.05;7.65;;;;;;;;;;5043434;28;20618;-52
2021/03/17 02:01:17;;;;;;;9.13;7.70;;;;;;;;;;5042683;28;20241;-52
2021/03/17 02:03:49;;;;;;;9.02;7.30;;;;;;;;;;5042782;28;20190;-55
2021/03/17 02:06:15;;;;;;;17.42;8.68;;;;;;;;;;5042747;28;20209;-51
2021/03/17 02:08:43;;;;;;;9.40;8.35;;;;;;;;;;5043441;28;20199;-52
2021/03/17 02:11:13;;;;;;;14.07;9.30;;;;;;;;;;5042472;28;20191;-53
2021/03/17 02:14:05;;;;;;;15.23;7.85;;;;;;;;;;5043533;28;20249;-54
2021/03/17 02:16:39;;;;;;;9.18;8.23;;;;;;;;;;5042757;28;20206;-53
2021/03/17 02:19:08;;;;;;;11.52;7.90;;;;;;;;;;5043799;28;20187;-55
2021/03/17 02:22:07;;;;;;;16.58;9.27;;;;;;;;;;5043498;28;20168;-55
2021/03/17 02:24:53;;;;;;;14.88;8.30;;;;;;;;;;5043441;28;20176;-53
2021/03/17 02:27:37;;;;;;;14.35;9.52;;;;;;;;;;5043741;28;20175;-53
2021/03/17 02:30:21;;;;;;;10.65;8.02;;;;;;;;;;5043409;28;20229;-54
2021/03/17 02:33:06;;;;;;;13.05;9.77;;;;;;;;;;5043152;28;20170;-55
2021/03/17 02:35:32;;;;;;;13.77;8.50;;;;;;;;;;5043227;28;20164;-55
2021/03/17 02:38:00;;;;;;;11.20;8.20;;;;;;;;;;5042444;28;20168;-53
2021/03/17 02:40:33;;;;;;;12.60;7.97;;;;;;;;;;5041032;28;20261;-51
2021/03/17 02:43:11;;;;;;;11.05;8.02;;;;;;;;;;5042305;28;20203;-55
2021/03/17 02:45:48;;;;;;;10.50;8.25;;;;;;;;;;5042486;28;20178;-54
2021/03/17 02:48:33;;;;;;;9.05;7.95;;;;;;;;;;5041800;28;20190;-53
2021/03/17 02:51:57;;;;;;;13.60;9.32;;;;;;;;;;5042723;28;20170;-53
2021/03/17 02:54:02;;;;;;;14.60;11.00;;;;;;;;;;5037233;28;20239;-54
2021/03/17 02:56:29;;;;;;;16.08;12.00;;;;;;;;;;5042718;28;20198;-54
2021/03/17 02:58:55;;;;;;;18.83;11.45;;;;;;;;;;5038906;28;20210;-54
2021/03/17 03:01:24;;;;;;;22.05;12.32;;;;;;;;;;5042329;28;20172;-52
2021/03/17 03:03:51;;;;;;;18.27;12.75;;;;;;;;;;5042336;28;20224;-53
2021/03/17 03:06:17;;;;;;;20.75;12.70;;;;;;;;;;5042402;28;20171;-55
2021/03/17 03:08:44;;;;;;;19.13;12.95;;;;;;;;;;5038370;28;20640;-55
2021/03/17 03:11:11;;;;;;;19.13;12.75;;;;;;;;;;5041617;28;20167;-51
2021/03/17 03:13:37;;;;;;;25.65;13.18;;;;;;;;;;5041846;28;20172;-53
2021/03/17 03:16:04;;;;;;;25.33;14.48;;;;;;;;;;5045334;28;20202;-53
2021/03/17 03:18:32;;;;;;;20.52;14.60;;;;;;;;;;5044670;28;20320;-52
2021/03/17 03:20:59;;;;;;;19.88;12.65;;;;;;;;;;5045038;28;20235;-52
2021/03/17 03:23:25;;;;;;;21.60;12.57;;;;;;;;;;5044727;28;20185;-53
2021/03/17 03:25:54;;;;;;;16.65;12.40;;;;;;;;;;5045620;28;20695;-54
2021/03/17 03:28:21;;;;;;;17.92;12.73;;;;;;;;;;5044839;28;20210;-52
2021/03/17 03:30:48;;;;;;;21.05;12.55;;;;;;;;;;5044756;28;20238;-55
2021/03/17 03:33:14;;;;;;;18.30;12.23;;;;;;;;;;5044974;28;20221;-53
2021/03/17 03:35:41;;;;;;;14.63;11.30;;;;;;;;;;5041226;28;20210;-53
2021/03/17 03:38:11;;;;;;;17.02;12.45;;;;;;;;;;5045255;28;20197;-54
2021/03/17 03:40:43;;;;;;;16.50;12.35;;;;;;;;;;5045896;28;20521;-52
2021/03/17 03:43:10;;;;;;;14.05;10.82;;;;;;;;;;5046225;28;20257;-52
2021/03/17 03:45:37;;;;;;;13.40;10.18;;;;;;;;;;5044796;28;20209;-52
2021/03/17 03:48:04;;;;;;;15.65;10.80;;;;;;;;;;5043378;28;20175;-53
2021/03/17 03:50:31;;;;;;;15.48;10.65;;;;;;;;;;5043065;28;20263;-54
2021/03/17 03:53:16;;;;;;;13.48;9.65;;;;;;;;;;5044827;28;20244;-54
2021/03/17 03:55:48;;;;;;;13.73;10.00;;;;;;;;;;5043759;28;20202;-55
2021/03/17 03:58:35;;;;;;;11.30;8.98;;;;;;;;;;5043484;28;20189;-56
2021/03/17 04:01:17;;;;;;;10.70;7.68;;;;;;;;;;5040705;28;20234;-54
2021/03/17 04:03:45;;;;;;;12.25;9.00;;;;;;;;;;5044417;28;20263;-53
2021/03/17 04:06:12;;;;;;;9.70;8.50;;;;;;;;;;5044292;28;20199;-55
2021/03/17 04:08:43;;;;;;;9.77;7.55;;;;;;;;;;5043920;28;20206;-56
2021/03/17 04:11:10;;;;;;;9.93;7.88;;;;;;;;;;5044130;28;20257;-54
2021/03/17 04:13:36;;;;;;;7.55;6.85;;;;;;;;;;5042875;28;20170;-54
2021/03/17 04:16:02;;;;;;;6.20;5.60;;;;;;;;;;5042696;28;20174;-51
2021/03/17 04:18:33;;;;;;;7.53;5.95;;;;;;;;;;5036162;28;20710;-49
2021/03/17 04:21:03;;;;;;;6.28;5.70;;;;;;;;;;5037178;28;20240;-49
2021/03/17 04:23:30;;;;;;;5.57;5.03;;;;;;;;;;5036839;28;20336;-52
2021/03/17 04:25:57;;;;;;;5.60;5.10;;;;;;;;;;5036778;28;20172;-52
2021/03/17 04:28:25;;;;;;;4.80;4.40;;;;;;;;;;5032328;28;20340;-50
2021/03/17 04:30:53;;;;;;;5.30;4.72;;;;;;;;;;5037305;28;20181;-49
2021/03/17 04:33:20;;;;;;;9.10;6.10;;;;;;;;;;5037231;28;20171;-50
2021/03/17 04:35:47;;;;;;;7.25;5.07;;;;;;;;;;5037288;28;20174;-52
2021/03/17 04:38:14;;;;;;;6.00;5.07;;;;;;;;;;5036498;28;20200;-50
2021/03/17 04:40:40;;;;;;;6.78;6.18;;;;;;;;;;5036703;28;20588;-55
2021/03/17 04:43:07;;;;;;;6.25;5.65;;;;;;;;;;5036889;28;20252;-54
2021/03/17 04:45:33;;;;;;;8.85;6.38;;;;;;;;;;5036858;28;20314;-53
2021/03/17 04:48:00;;;;;;;6.15;5.47;;;;;;;;;;5036830;28;20174;-54
2021/03/17 04:50:28;;;;;;;7.30;6.22;;;;;;;;;;5032803;28;20206;-51
2021/03/17 04:52:55;;;;;;;6.53;5.80;;;;;;;;;;5036062;28;20213;-60
2021/03/17 04:55:21;;;;;;;6.72;6.07;;;;;;;;;;5036055;28;20172;-51
2021/03/17 04:57:49;;;;;;;8.93;6.40;;;;;;;;;;5036195;28;20696;-53
2021/03/17 05:00:17;;;;;;;6.95;6.28;;;;;;;;;;5035895;28;20214;-51
2021/03/17 05:02:53;;;;;;;9.63;7.00;;;;;;;;;;5036357;28;20220;-53
2021/03/17 05:05:19;;;;;;;9.85;7.45;;;;;;;;;;5036798;28;20190;-56
2021/03/17 05:07:46;;;;;;;9.65;7.80;;;;;;;;;;5035959;28;20169;-50
2021/03/17 05:10:13;;;;;;;8.55;7.70;;;;;;;;;;5036091;28;20558;-50
2021/03/17 05:12:39;;;;;;;10.43;7.88;;;;;;;;;;5036178;28;20258;-53
2021/03/17 05:15:06;;;;;;;11.20;7.47;;;;;;;;;;5032560;28;20651;-50
2021/03/17 05:17:33;;;;;;;9.07;8.18;;;;;;;;;;5035136;28;20211;-51
2021/03/17 05:19:59;;;;;;;10.68;8.60;;;;;;;;;;5035578;28;20191;-50
2021/03/17 05:22:26;;;;;;;9.90;8.73;;;;;;;;;;5035618;28;20546;-50
2021/03/17 05:24:53;;;;;;;9.75;8.70;;;;;;;;;;5035649;28;20430;-54
2021/03/17 05:27:22;;;;;;;13.80;10.32;;;;;;;;;;5035697;28;20172;-57
2021/03/17 05:29:49;;;;;;;12.95;10.13;;;;;;;;;;5035595;28;20732;-50
2021/03/17 05:32:16;;;;;;;12.60;9.75;;;;;;;;;;5034594;28;20163;-51
2021/03/17 05:35:03;;;;;;;16.02;10.63;;;;;;;;;;5035522;28;20705;-53
2021/03/17 05:37:29;;;;;;;13.38;10.65;;;;;;;;;;5035491;28;20197;-54
2021/03/17 05:39:55;;;;;;;15.23;10.80;;;;;;;;;;5035042;28;20624;-52
2021/03/17 05:42:22;;;;;;;15.30;10.88;;;;;;;;;;5031998;28;20187;-55
2021/03/17 05:44:48;;;;;;;13.50;11.13;;;;;;;;;;5035540;28;20171;-53
2021/03/17 05:47:16;;;;;;;12.50;10.23;;;;;;;;;;5035640;28;20249;-50
2021/03/17 05:49:42;;;;;;;15.23;10.32;;;;;;;;;;5034958;28;20202;-51
2021/03/17 05:52:08;;;;;;;12.63;10.18;;;;;;;;;;5035339;28;20255;-53
2021/03/17 05:54:38;;;;;;;14.77;11.10;;;;;;;;;;5034915;28;20182;-51
2021/03/17 05:57:04;;;;;;;13.98;11.48;;;;;;;;;;5035179;28;20175;-56
2021/03/17 05:59:30;;;;;;;12.35;10.38;;;;;;;;;;5035253;28;20272;-57
2021/03/17 06:01:57;;;;;;;14.93;11.52;;;;;;;;;;5034678;28;20190;-51
2021/03/17 06:04:28;;;;;;;15.68;9.70;;;;;;;;;;5033937;28;20186;-52
2021/03/17 06:06:58;;;;;;;15.20;9.77;;;;;;;;;;5033971;28;20253;-54
2021/03/17 06:09:25;;;;;;;12.07;9.77;;;;;;;;;;5029910;28;20297;-54
2021/03/17 06:11:54;;;;;;;12.40;9.77;;;;;;;;;;5033994;28;20169;-50
2021/03/17 06:14:21;;;;;;;8.10;4.72;;;;;;;;;;5033259;28;20182;-50
2021/03/17 06:16:49;;;;;;;4.00;3.70;;;;;;;;;;5031448;28;20178;-51
2021/03/17 06:19:16;;;;;;;3.78;3.40;;;;;;;;;;5034169;28;20544;-50
2021/03/17 06:21:42;;;;;;;4.70;3.78;;;;;;;;;;5034645;28;20781;-49
2021/03/17 06:24:10;;;;;;;3.33;2.75;;;;;;;;;;5034495;28;20184;-50
2021/03/17 06:29:40;;;;;;;3.70;3.40;;;;;;;;;;5034351;28;20208;-50
2021/03/17 06:32:09;;;;;;;3.35;2.72;;;;;;;;;;5034237;28;20271;-55
2021/03/17 06:34:44;;;;;;;3.40;3.10;;;;;;;;;;5034787;28;20163;-52
2021/03/17 06:37:10;;;;;;;3.88;2.90;;;;;;;;;;5034471;28;20173;-51
2021/03/17 06:39:36;;;;;;;4.37;3.23;;;;;;;;;;5034211;28;20194;-51
2021/03/17 06:42:02;;;;;;;5.85;3.33;;;;;;;;;;5034426;28;20402;-51
2021/03/17 06:44:29;;;;;;;4.35;3.08;;;;;;;;;;5032202;28;20241;-57
2021/03/17 06:47:21;;;;;;;6.88;2.25;;;;;;;;;;5034015;28;20176;-53
2021/03/17 06:49:48;;;;;;;7.38;2.53;;;;;;;;;;5031620;28;20227;-53
2021/03/17 06:52:33;;;;;;;3.35;2.30;;;;;;;;;;5018513;28;20552;-50
2021/03/17 06:55:05;;;;;;;3.03;2.10;;;;;;;;;;5015947;28;20174;-52
2021/03/17 06:57:31;;;;;;;2.75;2.50;;;;;;;;;;5032520;28;20539;-54
2021/03/17 07:00:15;;;;;;;8.27;3.17;;;;;;;;;;5038636;28;20191;-54
2021/03/17 07:02:41;;;;;;;3.78;2.58;;;;;;;;;;5038467;28;20432;-51
2021/03/17 07:05:08;;;;;;;4.05;3.00;;;;;;;;;;5038538;28;20176;-51
2021/03/17 07:07:47;;;;;;;3.58;3.28;;;;;;;;;;5037169;28;20186;-54
2021/03/17 07:10:14;;;;;;;3.60;3.30;;;;;;;;;;5036206;28;20207;-55
2021/03/17 07:12:39;;;;;;;7.63;3.67;;;;;;;;;;5037835;28;20164;-57
2021/03/17 07:15:09;;;;;;;5.20;3.40;;;;;;;;;;5035132;28;20192;-53
2021/03/17 07:17:35;;;;;;;5.32;3.67;;;;;;;;;;5036302;28;20394;-50
2021/03/17 07:20:05;;;;;;;8.20;3.60;;;;;;;;;;5034960;28;20253;-50
2021/03/17 07:22:31;;;;;;;5.77;4.07;;;;;;;;;;5034881;28;20412;-50
2021/03/17 07:25:05;;;;;;;3.87;3.57;;;;;;;;;;5034982;28;20488;-50
2021/03/17 07:27:32;;;;;;;5.20;3.63;;;;;;;;;;5034474;28;20915;-50
2021/03/17 07:29:58;;;;;;;4.60;3.60;;;;;;;;;;5033884;28;20483;-54
2021/03/17 07:32:27;;;;;;;2.87;2.63;;;;;;;;;;5033878;28;20776;-55
2021/03/17 07:34:53;;;;;;;3.13;2.63;;;;;;;;;;5033790;28;20767;-51
2021/03/17 07:37:25;;;;;;;4.10;2.30;;;;;;;;;;5033749;28;20474;-52
2021/03/17 07:39:52;;;;;;;6.13;3.07;;;;;;;;;;5031881;28;20469;-51
2021/03/17 07:42:20;;;;;;;4.70;2.37;;;;;;;;;;5033976;28;20886;-50
2021/03/17 07:44:46;;;;;;;3.17;2.70;;;;;;;;;;5033817;28;20906;-56
2021/03/17 07:47:12;;;;;;;4.20;2.03;;;;;;;;;;5033727;28;20879;-56
2021/03/17 07:49:46;;;;;;;4.27;2.37;;;;;;;;;;5033270;28;21144;-55
2021/03/17 07:52:20;;;;;;;5.10;2.60;;;;;;;;;;5033639;28;20406;-50
2021/03/17 07:54:50;;;;;;;5.43;2.60;;;;;;;;;;5033656;28;20888;-53
2021/03/17 07:57:16;;;;;;;10.60;2.97;;;;;;;;;;5033857;28;20400;-50
2021/03/17 07:59:43;;;;;;;11.90;3.27;;;;;;;;;;5035787;28;20434;-52
2021/03/17 08:02:10;;;;;;;3.27;2.43;;;;;;;;;;5036415;28;20437;-54
2021/03/17 08:04:36;;;;;;;6.87;2.77;;;;;;;;;;5034451;28;20489;-51
2021/03/17 08:07:05;;;;;;;9.63;2.77;;;;;;;;;;5030282;28;20447;-52
2021/03/17 08:09:33;;;;;;;2.40;2.20;;;;;;;;;;5033266;28;20460;-52
2021/03/17 08:12:01;;;;;;;5.57;2.77;;;;;;;;;;5033768;28;20913;-55
2021/03/17 08:14:28;;;;;;;5.63;2.87;;;;;;;;;;5033918;28;20433;-52
2021/03/17 08:16:54;;;;;;;6.10;3.13;;;;;;;;;;5034004;28;21028;-50
2021/03/17 08:19:31;;;;;;;10.43;3.73;;;;;;;;;;5033370;28;20916;-51
2021/03/17 08:21:57;;;;;;;3.13;2.83;;;;;;;;;;5036463;28;20758;-51
2021/03/17 08:27:02;;;;;;;5.57;3.00;;;;;;;;;;5036840;28;20456;-51
2021/03/17 08:29:41;;;;;;;5.05;3.80;;;;;;;;;;5035683;28;20469;-50
2021/03/17 08:32:07;;;;;;;4.65;2.78;;;;;;;;;;5037530;28;20729;-50
2021/03/17 08:34:35;;;;;;;5.25;2.58;;;;;;;;;;5037408;28;20168;-54
2021/03/17 08:37:02;;;;;;;3.53;2.92;;;;;;;;;;5036702;28;20228;-50
2021/03/17 08:39:32;;;;;;;5.28;3.25;;;;;;;;;;5034409;28;20555;-52
2021/03/17 08:42:07;;;;;;;3.55;3.17;;;;;;;;;;5036645;28;20635;-51
2021/03/17 08:44:42;;;;;;;5.15;2.95;;;;;;;;;;5036298;28;20177;-53
2021/03/17 08:47:16;;;;;;;8.63;3.43;;;;;;;;;;5035938;28;20178;-52
2021/03/17 08:49:42;;;;;;;10.13;3.20;;;;;;;;;;5035358;28;20458;-51
2021/03/17 08:52:09;;;;;;;4.93;3.33;;;;;;;;;;5036254;28;20412;-50
2021/03/17 08:54:41;;;;;;;3.00;2.80;;;;;;;;;;5034584;28;20396;-51
2021/03/17 08:57:07;;;;;;;5.67;3.30;;;;;;;;;;5033457;28;20180;-53
2021/03/17 08:59:44;;;;;;;4.87;3.10;;;;;;;;;;5033235;28;20511;-53
2021/03/17 09:02:21;;;;;;;4.87;3.13;;;;;;;;;;5033115;28;20946;-52
2021/03/17 09:04:48;;;;;;;6.27;3.73;;;;;;;;;;5033307;28;20457;-52
2021/03/17 09:07:14;;;;;;;3.10;2.80;;;;;;;;;;5033544;28;20437;-53
2021/03/17 09:09:47;;;;;;;9.13;3.60;;;;;;;;;;5021919;28;20516;-51
2021/03/17 09:12:14;;;;;;;3.67;3.17;;;;;;;;;;5015489;28;20441;-56
2021/03/17 09:14:40;;;;;;;7.87;3.23;;;;;;;;;;5015197;28;20952;-50
2021/03/17 09:17:14;;;;;;;6.17;3.10;;;;;;;;;;5015962;28;20460;-55
2021/03/17 09:19:53;;;;;;;6.45;3.35;;;;;;;;;;5014188;28;20822;-50
2021/03/17 09:22:35;;;;;;;5.25;3.28;;;;;;;;;;5015913;28;20193;-51
2021/03/17 09:25:01;;;;;;;4.07;3.10;;;;;;;;;;5015230;28;20255;-54
2021/03/17 09:27:27;;;;;;;4.63;3.55;;;;;;;;;;5016058;28;20172;-52
2021/03/17 09:29:53;;;;;;;6.93;3.83;;;;;;;;;;5016091;28;20580;-56
2021/03/17 09:32:19;;;;;;;3.57;3.23;;;;;;;;;;5016165;28;20767;-52
2021/03/17 09:34:48;;;;;;;5.07;3.10;;;;;;;;;;5016197;28;20402;-56
2021/03/17 09:37:14;;;;;;;5.25;3.75;;;;;;;;;;5017763;28;20494;-50
2021/03/17 09:39:47;;;;;;;5.70;3.15;;;;;;;;;;5034910;28;20675;-51
2021/03/17 09:42:16;;;;;;;6.72;2.75;;;;;;;;;;5035009;28;20571;-55
2021/03/17 09:44:42;;;;;;;4.33;2.80;;;;;;;;;;5035406;28;20174;-50
2021/03/17 09:47:08;;;;;;;4.70;2.88;;;;;;;;;;5035266;28;20499;-51
2021/03/17 09:49:36;;;;;;;4.60;3.07;;;;;;;;;;5034415;28;20235;-50
2021/03/17 09:52:02;;;;;;;3.83;2.90;;;;;;;;;;5034124;28;20443;-53
2021/03/17 09:54:29;;;;;;;9.63;3.13;;;;;;;;;;5033183;28;20423;-50
2021/03/17 09:57:00;;;;;;;9.47;2.70;;;;;;;;;;5035355;28;20405;-52
2021/03/17 09:59:36;;;;;;;2.97;2.53;;;;;;;;;;5034439;28;20761;-52
2021/03/17 10:02:24;;;;;;;3.47;3.17;;;;;;;;;;5033228;28;20454;-54
2021/03/17 10:04:58;;;;;;;3.67;2.80;;;;;;;;;;5033020;28;20416;-51
2021/03/17 10:07:25;;;;;;;5.33;2.80;;;;;;;;;;5031017;28;20452;-51
2021/03/17 10:09:51;;;;;;;3.77;2.73;;;;;;;;;;5034335;28;20466;-49
2021/03/17 10:12:19;;;;;;;5.50;2.30;;;;;;;;;;5031249;28;20510;-49
2021/03/17 10:14:46;;;;;;;10.73;2.70;;;;;;;;;;5034949;28;20400;-55
2021/03/17 10:17:13;;;;;;;3.40;3.10;;;;;;;;;;5038142;28;20968;-53
2021/03/17 10:19:39;;;;;;;5.20;2.83;;;;;;;;;;5040764;28;20499;-51
2021/03/17 10:22:07;;;;;;;5.20;2.97;;;;;;;;;;5041095;28;20462;-52
2021/03/17 10:24:40;;;;;;;6.27;2.67;;;;;;;;;;5040262;28;20829;-54
2021/03/17 10:27:17;;;;;;;4.07;2.50;;;;;;;;;;5040626;28;20749;-53
2021/03/17 10:29:44;;;;;;;3.20;2.20;;;;;;;;;;5040880;28;20486;-55
2021/03/17 10:32:13;;;;;;;4.73;1.90;;;;;;;;;;5040685;28;20403;-52
2021/03/17 10:34:39;;;;;;;2.40;2.20;;;;;;;;;;5041115;28;20409;-54
2021/03/17 10:37:11;;;;;;;5.30;2.80;;;;;;;;;;5042378;28;20398;-52
2021/03/17 10:39:37;;;;;;;3.10;2.07;;;;;;;;;;5035931;28;20450;-52
2021/03/17 10:42:04;;;;;;;5.33;2.30;;;;;;;;;;5038103;28;20418;-52
2021/03/17 10:44:31;;;;;;;2.00;1.90;;;;;;;;;;5039691;28;20834;-53
2021/03/17 10:47:01;;;;;;;2.23;1.87;;;;;;;;;;5038749;28;20493;-53
2021/03/17 10:49:28;;;;;;;4.30;2.07;;;;;;;;;;5038555;28;20515;-51
2021/03/17 10:51:55;;;;;;;3.60;1.80;;;;;;;;;;5040106;28;20405;-49
2021/03/17 10:54:35;;;;;;;5.73;2.10;;;;;;;;;;5040295;28;20426;-54
2021/03/17 10:57:02;;;;;;;1.87;1.77;;;;;;;;;;5040286;28;20410;-53
2021/03/17 10:59:30;;;;;;;3.97;2.37;;;;;;;;;;5040486;28;20421;-54
2021/03/17 11:02:15;;;;;;;5.37;1.93;;;;;;;;;;5039914;28;20450;-56
2021/03/17 11:04:59;;;;;;;3.87;2.30;;;;;;;;;;5041509;28;20932;-52
2021/03/17 11:07:25;;;;;;;2.53;1.80;;;;;;;;;;5041412;28;20414;-51
2021/03/17 11:09:51;;;;;;;2.40;2.20;;;;;;;;;;5035217;28;20470;-52
2021/03/17 11:12:17;;;;;;;5.47;2.50;;;;;;;;;;5041064;28;20439;-54
2021/03/17 11:14:46;;;;;;;3.53;2.13;;;;;;;;;;5041850;28;21127;-54
2021/03/17 11:17:12;;;;;;;3.10;1.87;;;;;;;;;;5041434;28;20417;-50
2021/03/17 11:19:38;;;;;;;2.60;1.97;;;;;;;;;;5041728;28;20431;-53
2021/03/17 11:22:04;;;;;;;10.80;2.17;;;;;;;;;;5040748;28;20423;-53
2021/03/17 11:24:30;;;;;;;5.90;2.40;;;;;;;;;;5041792;28;20900;-53
2021/03/17 11:26:56;;;;;;;1.77;1.60;;;;;;;;;;5041525;28;20435;-52
2021/03/17 11:29:24;;;;;;;2.60;1.60;;;;;;;;;;5041674;28;20467;-54
2021/03/17 11:31:51;;;;;;;6.30;2.20;;;;;;;;;;5040821;28;20464;-53
2021/03/17 11:34:19;;;;;;;5.73;2.07;;;;;;;;;;5039870;28;20419;-54
2021/03/17 11:36:45;;;;;;;3.80;1.80;;;;;;;;;;5045261;28;20404;-52
2021/03/17 11:39:12;;;;;;;10.50;2.30;;;;;;;;;;5041269;28;20446;-54
2021/03/17 11:41:39;;;;;;;8.23;2.20;;;;;;;;;;5045459;28;20413;-55
2021/03/17 11:44:05;;;;;;;4.00;2.10;;;;;;;;;;5044068;28;20412;-51
2021/03/17 11:46:31;;;;;;;2.43;2.00;;;;;;;;;;5041014;28;20419;-51
2021/03/17 11:48:57;;;;;;;2.00;1.80;;;;;;;;;;5043136;28;20465;-50
2021/03/17 11:51:23;;;;;;;4.00;1.90;;;;;;;;;;5043743;28;20911;-55
2021/03/17 11:53:50;;;;;;;3.33;2.33;;;;;;;;;;5044150;28;20493;-53
2021/03/17 11:56:16;;;;;;;3.10;1.90;;;;;;;;;;5044577;28;20407;-52
2021/03/17 11:58:42;;;;;;;2.10;1.70;;;;;;;;;;5043944;28;20455;-51
2021/03/17 12:01:09;;;;;;;2.40;1.70;;;;;;;;;;5038879;28;20512;-50
2021/03/17 12:03:35;;;;;;;5.57;1.50;;;;;;;;;;5044763;28;20453;-51
2021/03/17 12:06:01;;;;;;;1.87;1.30;;;;;;;;;;5045467;28;20408;-51
2021/03/17 12:08:27;;;;;;;4.00;1.83;;;;;;;;;;5044638;28;20442;-51
2021/03/17 12:10:54;;;;;;;3.00;1.93;;;;;;;;;;5045001;28;20402;-52
2021/03/17 12:13:21;;;;;;;2.53;1.67;;;;;;;;;;5044706;28;20772;-51
2021/03/17 12:15:47;;;;;;;5.97;1.83;;;;;;;;;;5045221;28;20858;-51
2021/03/17 12:18:13;;;;;;;2.97;1.80;;;;;;;;;;5044420;28;20513;-51
2021/03/17 12:20:40;;;;;;;4.90;1.77;;;;;;;;;;5044361;28;20475;-54
2021/03/17 12:23:06;;;;;;;3.90;1.87;;;;;;;;;;5044973;28;20460;-55
2021/03/17 12:25:32;;;;;;;2.37;1.77;;;;;;;;;;5044367;28;20416;-55
2021/03/17 12:27:59;;;;;;;7.23;2.20;;;;;;;;;;5043745;28;20419;-56
2021/03/17 12:30:25;;;;;;;6.80;2.20;;;;;;;;;;5030672;28;20478;-50
2021/03/17 12:32:52;;;;;;;4.65;2.15;;;;;;;;;;5008515;28;20957;-51
2021/03/17 12:35:19;;;;;;;6.60;1.97;;;;;;;;;;5013472;28;20177;-50
2021/03/17 12:37:46;;;;;;;7.77;2.20;;;;;;;;;;5012979;28;20402;-52
2021/03/17 12:40:14;;;;;;;3.87;2.10;;;;;;;;;;5015976;28;20774;-50
2021/03/17 12:42:40;;;;;;;4.33;1.80;;;;;;;;;;5015979;28;20474;-50
2021/03/17 12:45:07;;;;;;;3.53;2.37;;;;;;;;;;5014476;28;20413;-53
2021/03/17 12:47:34;;;;;;;1.80;1.70;;;;;;;;;;5012999;28;20413;-54
2021/03/17 12:50:00;;;;;;;6.60;2.07;;;;;;;;;;5013051;28;20474;-54
2021/03/17 12:52:26;;;;;;;5.03;2.00;;;;;;;;;;5014919;28;20405;-53
2021/03/17 12:54:52;;;;;;;7.03;1.90;;;;;;;;;;5016190;28;20437;-52
2021/03/17 12:57:36;;;;;;;3.27;2.00;;;;;;;;;;5016900;28;20441;-51
2021/03/17 13:00:06;;;;;;;3.03;2.10;;;;;;;;;;5019943;28;20459;-53
2021/03/17 13:02:32;;;;;;;3.87;2.17;;;;;;;;;;5019072;28;20478;-54
2021/03/17 13:04:58;;;;;;;4.83;2.30;;;;;;;;;;5014873;28;20408;-53
2021/03/17 13:07:25;;;;;;;4.63;2.00;;;;;;;;;;5014373;28;20457;-52
2021/03/17 13:09:52;;;;;;;4.90;2.77;;;;;;;;;;5014434;28;20451;-53
2021/03/17 13:12:18;;;;;;;3.50;2.37;;;;;;;;;;5015093;28;20399;-54
2021/03/17 13:14:47;;;;;;;2.50;1.77;;;;;;;;;;5015494;28;20764;-53
2021/03/17 13:17:13;;;;;;;3.40;2.20;;;;;;;;;;5021322;28;20402;-52
2021/03/17 13:19:39;;;;;;;3.60;2.10;;;;;;;;;;5020392;28;20436;-52
2021/03/17 13:22:07;;;;;;;3.00;1.80;;;;;;;;;;5021724;28;20418;-53
2021/03/17 13:24:33;;;;;;;3.30;2.00;;;;;;;;;;5022541;28;20399;-52
2021/03/17 13:26:59;;;;;;;7.63;2.03;;;;;;;;;;5020638;28;20467;-53
2021/03/17 13:29:25;;;;;;;2.70;1.37;;;;;;;;;;5021253;28;20465;-53
2021/03/17 13:31:51;;;;;;;4.03;2.17;;;;;;;;;;5036642;28;20430;-53
2021/03/17 13:34:18;;;;;;;1.93;1.83;;;;;;;;;;5040364;28;20473;-53
2021/03/17 13:36:44;;;;;;;2.00;1.90;;;;;;;;;;5038219;28;20429;-52
2021/03/17 13:39:10;;;;;;;4.77;2.07;;;;;;;;;;5039853;28;20418;-52
2021/03/17 13:41:36;;;;;;;4.53;2.63;;;;;;;;;;5040798;28;20417;-53
2021/03/17 13:44:02;;;;;;;5.40;2.10;;;;;;;;;;5039679;28;20414;-50
2021/03/17 13:46:29;;;;;;;6.30;2.10;;;;;;;;;;5040166;28;20411;-50
2021/03/17 13:48:55;;;;;;;2.13;1.90;;;;;;;;;;5040519;28;20997;-52
2021/03/17 13:51:21;;;;;;;3.10;2.30;;;;;;;;;;5041353;28;20406;-52
2021/03/17 13:53:48;;;;;;;8.63;2.30;;;;;;;;;;5041407;28;20413;-52
2021/03/17 13:56:14;;;;;;;2.80;2.30;;;;;;;;;;5040396;28;20774;-55
2021/03/17 13:58:40;;;;;;;3.43;2.00;;;;;;;;;;5040222;28;20426;-53
2021/03/17 14:01:06;;;;;;;8.50;2.20;;;;;;;;;;5039120;28;20480;-53
2021/03/17 14:03:32;;;;;;;2.60;2.03;;;;;;;;;;5035171;28;20446;-53
2021/03/17 14:05:59;;;;;;;2.37;1.70;;;;;;;;;;5039465;28;20484;-53
2021/03/17 14:08:25;;;;;;;3.53;2.30;;;;;;;;;;5040452;28;20430;-54
2021/03/17 14:10:51;;;;;;;2.60;1.73;;;;;;;;;;5039447;28;20457;-53
2021/03/17 14:13:17;;;;;;;4.20;2.00;;;;;;;;;;5039608;28;20401;-53
2021/03/17 14:15:43;;;;;;;4.00;1.50;;;;;;;;;;5039362;28;20429;-53
2021/03/17 14:18:10;;;;;;;2.80;1.70;;;;;;;;;;5038681;28;20488;-52
2021/03/17 14:20:36;;;;;;;4.20;2.33;;;;;;;;;;5038288;28;20398;-53
2021/03/17 14:23:02;;;;;;;3.97;2.17;;;;;;;;;;5038683;28;20398;-53
2021/03/17 14:25:29;;;;;;;4.70;2.17;;;;;;;;;;5039225;28;20409;-53
2021/03/17 14:27:56;;;;;;;8.60;2.00;;;;;;;;;;5038564;28;20902;-50
2021/03/17 14:30:22;;;;;;;5.63;2.50;;;;;;;;;;5039665;28;20458;-50
2021/03/17 14:32:49;;;;;;;1.77;1.63;;;;;;;;;;5039748;28;20483;-50
2021/03/17 14:35:15;;;;;;;5.37;1.60;;;;;;;;;;5043281;28;20785;-51
2021/03/17 14:37:41;;;;;;;6.03;1.97;;;;;;;;;;5042650;28;20430;-50
2021/03/17 14:40:10;;;;;;;4.27;2.00;;;;;;;;;;5041931;28;20423;-51
2021/03/17 14:42:36;;;;;;;2.97;1.83;;;;;;;;;;5043313;28;20400;-50
2021/03/17 14:45:03;;;;;;;5.87;1.73;;;;;;;;;;5040011;28;20470;-52
2021/03/17 14:47:29;;;;;;;6.23;2.10;;;;;;;;;;5041105;28;20402;-50
2021/03/17 14:49:55;;;;;;;2.33;2.03;;;;;;;;;;5043104;28;20460;-51
2021/03/17 14:52:22;;;;;;;1.87;1.40;;;;;;;;;;5041205;28;20862;-50
2021/03/17 14:54:48;;;;;;;4.17;1.50;;;;;;;;;;5039546;28;20477;-50